Aviation Digital Data Service (ADDS)

Output produced by METARs form (0145 UTC 28 March 2015)
found at http://www.aviationweather.gov/adds/metars/
 
KDEC 272320Z 2800/2824 03005KT P6SM SCT250 
     FM281400 VRB06KT P6SM SKC